<?xml version="1.0" encoding="UTF-8" standalone="no" ?>
<gpx xmlns="http://www.topografix.com/GPX/1/1" xmlns:xsi="http://www.w3.org/2001/XMLSchema-instance" xsi:schemaLocation="http://www.topografix.com/GPX/1/1 http://www.topografix.com/GPX/1/1/gpx.xsd" version="1.1" creator="VisuGPX - https://www.visugpx.com">
  <metadata>
    <name>magny en vexin gisors bas</name>
  </metadata>
  <trk>
    <name><![CDATA[magny en vexin gisors bas]]></name>
    <trkseg>
      <trkpt lat="49.15399" lon="1.78703">
        <ele>85</ele>
        <time>2020-09-02T12:44:03+02:00</time>
      </trkpt>
      <trkpt lat="49.15475" lon="1.78695">
        <ele>83</ele>
        <time>2020-09-02T12:44:08+02:00</time>
      </trkpt>
      <trkpt lat="49.1551" lon="1.78686">
        <ele>82</ele>
        <time>2020-09-02T12:44:13+02:00</time>
      </trkpt>
      <trkpt lat="49.155" lon="1.78671">
        <ele>82</ele>
        <time>2020-09-02T12:44:18+02:00</time>
      </trkpt>
      <trkpt lat="49.15514" lon="1.7865">
        <ele>81</ele>
        <time>2020-09-02T12:44:23+02:00</time>
      </trkpt>
      <trkpt lat="49.15499" lon="1.78611">
        <ele>81</ele>
        <time>2020-09-02T12:44:28+02:00</time>
      </trkpt>
      <trkpt lat="49.15486" lon="1.78622">
        <ele>81</ele>
        <time>2020-09-02T12:44:33+02:00</time>
      </trkpt>
      <trkpt lat="49.15446" lon="1.78553">
        <ele>81</ele>
        <time>2020-09-02T12:44:38+02:00</time>
      </trkpt>
      <trkpt lat="49.15431" lon="1.7851">
        <ele>81</ele>
        <time>2020-09-02T12:44:43+02:00</time>
      </trkpt>
      <trkpt lat="49.15451" lon="1.78465">
        <ele>78</ele>
        <time>2020-09-02T12:44:48+02:00</time>
      </trkpt>
      <trkpt lat="49.15523" lon="1.78383">
        <ele>70</ele>
        <time>2020-09-02T12:44:53+02:00</time>
      </trkpt>
      <trkpt lat="49.15488" lon="1.78298">
        <ele>68</ele>
        <time>2020-09-02T12:44:58+02:00</time>
      </trkpt>
      <trkpt lat="49.15457" lon="1.78268">
        <ele>68</ele>
        <time>2020-09-02T12:45:03+02:00</time>
      </trkpt>
      <trkpt lat="49.15437" lon="1.78212">
        <ele>67</ele>
        <time>2020-09-02T12:45:08+02:00</time>
      </trkpt>
      <trkpt lat="49.15422" lon="1.78162">
        <ele>67</ele>
        <time>2020-09-02T12:45:13+02:00</time>
      </trkpt>
      <trkpt lat="49.15455" lon="1.78126">
        <ele>67</ele>
        <time>2020-09-02T12:45:18+02:00</time>
      </trkpt>
      <trkpt lat="49.15399" lon="1.7801">
        <ele>68</ele>
        <time>2020-09-02T12:45:23+02:00</time>
      </trkpt>
      <trkpt lat="49.15384" lon="1.77954">
        <ele>69</ele>
        <time>2020-09-02T12:45:28+02:00</time>
      </trkpt>
      <trkpt lat="49.15371" lon="1.77952">
        <ele>68</ele>
        <time>2020-09-02T12:45:33+02:00</time>
      </trkpt>
      <trkpt lat="49.15304" lon="1.77808">
        <ele>68</ele>
        <time>2020-09-02T12:45:38+02:00</time>
      </trkpt>
      <trkpt lat="49.15315" lon="1.77778">
        <ele>68</ele>
        <time>2020-09-02T12:45:43+02:00</time>
      </trkpt>
      <trkpt lat="49.15266" lon="1.77675">
        <ele>64</ele>
        <time>2020-09-02T12:45:48+02:00</time>
      </trkpt>
      <trkpt lat="49.15231" lon="1.77596">
        <ele>65</ele>
        <time>2020-09-02T12:45:53+02:00</time>
      </trkpt>
      <trkpt lat="49.1521" lon="1.77519">
        <ele>65</ele>
        <time>2020-09-02T12:45:58+02:00</time>
      </trkpt>
      <trkpt lat="49.15194" lon="1.77469">
        <ele>66</ele>
        <time>2020-09-02T12:46:03+02:00</time>
      </trkpt>
      <trkpt lat="49.15203" lon="1.77386">
        <ele>71</ele>
        <time>2020-09-02T12:46:08+02:00</time>
      </trkpt>
      <trkpt lat="49.15048" lon="1.76884">
        <ele>67</ele>
        <time>2020-09-02T12:46:13+02:00</time>
      </trkpt>
      <trkpt lat="49.15222" lon="1.76746">
        <ele>95</ele>
        <time>2020-09-02T12:46:18+02:00</time>
      </trkpt>
      <trkpt lat="49.15385" lon="1.76579">
        <ele>102</ele>
        <time>2020-09-02T12:46:23+02:00</time>
      </trkpt>
      <trkpt lat="49.15544" lon="1.76487">
        <ele>99</ele>
        <time>2020-09-02T12:46:28+02:00</time>
      </trkpt>
      <trkpt lat="49.1562" lon="1.76394">
        <ele>100</ele>
        <time>2020-09-02T12:46:33+02:00</time>
      </trkpt>
      <trkpt lat="49.15648" lon="1.76392">
        <ele>99</ele>
        <time>2020-09-02T12:46:38+02:00</time>
      </trkpt>
      <trkpt lat="49.15712" lon="1.76113">
        <ele>107</ele>
        <time>2020-09-02T12:46:43+02:00</time>
      </trkpt>
      <trkpt lat="49.1585" lon="1.75811">
        <ele>127</ele>
        <time>2020-09-02T12:46:48+02:00</time>
      </trkpt>
      <trkpt lat="49.15865" lon="1.75766">
        <ele>131</ele>
        <time>2020-09-02T12:46:53+02:00</time>
      </trkpt>
      <trkpt lat="49.15848" lon="1.75665">
        <ele>136</ele>
        <time>2020-09-02T12:46:58+02:00</time>
      </trkpt>
      <trkpt lat="49.15858" lon="1.75519">
        <ele>141</ele>
        <time>2020-09-02T12:47:03+02:00</time>
      </trkpt>
      <trkpt lat="49.15885" lon="1.75319">
        <ele>147</ele>
        <time>2020-09-02T12:47:08+02:00</time>
      </trkpt>
      <trkpt lat="49.15937" lon="1.75146">
        <ele>145</ele>
        <time>2020-09-02T12:47:13+02:00</time>
      </trkpt>
      <trkpt lat="49.16125" lon="1.75096">
        <ele>148</ele>
        <time>2020-09-02T12:47:18+02:00</time>
      </trkpt>
      <trkpt lat="49.16254" lon="1.74894">
        <ele>152</ele>
        <time>2020-09-02T12:47:23+02:00</time>
      </trkpt>
      <trkpt lat="49.16318" lon="1.74858">
        <ele>151</ele>
        <time>2020-09-02T12:47:28+02:00</time>
      </trkpt>
      <trkpt lat="49.16362" lon="1.74862">
        <ele>150</ele>
        <time>2020-09-02T12:47:33+02:00</time>
      </trkpt>
      <trkpt lat="49.16394" lon="1.74894">
        <ele>150</ele>
        <time>2020-09-02T12:47:38+02:00</time>
      </trkpt>
      <trkpt lat="49.16419" lon="1.74925">
        <ele>150</ele>
        <time>2020-09-02T12:47:43+02:00</time>
      </trkpt>
      <trkpt lat="49.16449" lon="1.74912">
        <ele>151</ele>
        <time>2020-09-02T12:47:48+02:00</time>
      </trkpt>
      <trkpt lat="49.16591" lon="1.74723">
        <ele>146</ele>
        <time>2020-09-02T12:47:53+02:00</time>
      </trkpt>
      <trkpt lat="49.16634" lon="1.74618">
        <ele>146</ele>
        <time>2020-09-02T12:47:58+02:00</time>
      </trkpt>
      <trkpt lat="49.1675" lon="1.74339">
        <ele>146</ele>
        <time>2020-09-02T12:48:03+02:00</time>
      </trkpt>
      <trkpt lat="49.1678" lon="1.74199">
        <ele>144</ele>
        <time>2020-09-02T12:48:08+02:00</time>
      </trkpt>
      <trkpt lat="49.16779" lon="1.74113">
        <ele>143</ele>
        <time>2020-09-02T12:48:13+02:00</time>
      </trkpt>
      <trkpt lat="49.16784" lon="1.74053">
        <ele>144</ele>
        <time>2020-09-02T12:48:18+02:00</time>
      </trkpt>
      <trkpt lat="49.16762" lon="1.73952">
        <ele>145</ele>
        <time>2020-09-02T12:48:23+02:00</time>
      </trkpt>
      <trkpt lat="49.16741" lon="1.73862">
        <ele>148</ele>
        <time>2020-09-02T12:48:28+02:00</time>
      </trkpt>
      <trkpt lat="49.16728" lon="1.73815">
        <ele>150</ele>
        <time>2020-09-02T12:48:33+02:00</time>
      </trkpt>
      <trkpt lat="49.16758" lon="1.73704">
        <ele>157</ele>
        <time>2020-09-02T12:48:38+02:00</time>
      </trkpt>
      <trkpt lat="49.16866" lon="1.73631">
        <ele>159</ele>
        <time>2020-09-02T12:48:43+02:00</time>
      </trkpt>
      <trkpt lat="49.16937" lon="1.73534">
        <ele>154</ele>
        <time>2020-09-02T12:48:48+02:00</time>
      </trkpt>
      <trkpt lat="49.1701" lon="1.7354">
        <ele>149</ele>
        <time>2020-09-02T12:48:53+02:00</time>
      </trkpt>
      <trkpt lat="49.17138" lon="1.73586">
        <ele>142</ele>
        <time>2020-09-02T12:48:58+02:00</time>
      </trkpt>
      <trkpt lat="49.17194" lon="1.73654">
        <ele>143</ele>
        <time>2020-09-02T12:49:03+02:00</time>
      </trkpt>
      <trkpt lat="49.17291" lon="1.73654">
        <ele>142</ele>
        <time>2020-09-02T12:49:08+02:00</time>
      </trkpt>
      <trkpt lat="49.17364" lon="1.73538">
        <ele>139</ele>
        <time>2020-09-02T12:49:13+02:00</time>
      </trkpt>
      <trkpt lat="49.17481" lon="1.73247">
        <ele>138</ele>
        <time>2020-09-02T12:49:18+02:00</time>
      </trkpt>
      <trkpt lat="49.17491" lon="1.73131">
        <ele>133</ele>
        <time>2020-09-02T12:49:23+02:00</time>
      </trkpt>
      <trkpt lat="49.17519" lon="1.73053">
        <ele>131</ele>
        <time>2020-09-02T12:49:28+02:00</time>
      </trkpt>
      <trkpt lat="49.17756" lon="1.72478">
        <ele>130</ele>
        <time>2020-09-02T12:49:33+02:00</time>
      </trkpt>
      <trkpt lat="49.17933" lon="1.72079">
        <ele>116</ele>
        <time>2020-09-02T12:49:38+02:00</time>
      </trkpt>
      <trkpt lat="49.18274" lon="1.71352">
        <ele>115</ele>
        <time>2020-09-02T12:49:43+02:00</time>
      </trkpt>
      <trkpt lat="49.18869" lon="1.70077">
        <ele>102</ele>
        <time>2020-09-02T12:49:48+02:00</time>
      </trkpt>
      <trkpt lat="49.18999" lon="1.69865">
        <ele>96</ele>
        <time>2020-09-02T12:49:53+02:00</time>
      </trkpt>
      <trkpt lat="49.19089" lon="1.69792">
        <ele>92</ele>
        <time>2020-09-02T12:49:58+02:00</time>
      </trkpt>
      <trkpt lat="49.19179" lon="1.69695">
        <ele>95</ele>
        <time>2020-09-02T12:50:03+02:00</time>
      </trkpt>
      <trkpt lat="49.19201" lon="1.6962">
        <ele>97</ele>
        <time>2020-09-02T12:50:08+02:00</time>
      </trkpt>
      <trkpt lat="49.19334" lon="1.69642">
        <ele>93</ele>
        <time>2020-09-02T12:50:13+02:00</time>
      </trkpt>
      <trkpt lat="49.19359" lon="1.69738">
        <ele>90</ele>
        <time>2020-09-02T12:50:18+02:00</time>
      </trkpt>
      <trkpt lat="49.19561" lon="1.70397">
        <ele>64</ele>
        <time>2020-09-02T12:50:23+02:00</time>
      </trkpt>
      <trkpt lat="49.19582" lon="1.70586">
        <ele>60</ele>
        <time>2020-09-02T12:50:28+02:00</time>
      </trkpt>
      <trkpt lat="49.19651" lon="1.70858">
        <ele>60</ele>
        <time>2020-09-02T12:50:33+02:00</time>
      </trkpt>
      <trkpt lat="49.19724" lon="1.71131">
        <ele>65</ele>
        <time>2020-09-02T12:50:38+02:00</time>
      </trkpt>
      <trkpt lat="49.19744" lon="1.71152">
        <ele>64</ele>
        <time>2020-09-02T12:50:43+02:00</time>
      </trkpt>
      <trkpt lat="49.19831" lon="1.71049">
        <ele>63</ele>
        <time>2020-09-02T12:50:48+02:00</time>
      </trkpt>
      <trkpt lat="49.19866" lon="1.71051">
        <ele>65</ele>
        <time>2020-09-02T12:50:53+02:00</time>
      </trkpt>
      <trkpt lat="49.19939" lon="1.71169">
        <ele>64</ele>
        <time>2020-09-02T12:50:58+02:00</time>
      </trkpt>
      <trkpt lat="49.20063" lon="1.71075">
        <ele>88</ele>
        <time>2020-09-02T12:51:03+02:00</time>
      </trkpt>
      <trkpt lat="49.20082" lon="1.71024">
        <ele>95</ele>
        <time>2020-09-02T12:51:08+02:00</time>
      </trkpt>
      <trkpt lat="49.20202" lon="1.70925">
        <ele>111</ele>
        <time>2020-09-02T12:51:13+02:00</time>
      </trkpt>
      <trkpt lat="49.2032" lon="1.7085">
        <ele>113</ele>
        <time>2020-09-02T12:51:18+02:00</time>
      </trkpt>
      <trkpt lat="49.20463" lon="1.7115">
        <ele>105</ele>
        <time>2020-09-02T12:51:23+02:00</time>
      </trkpt>
      <trkpt lat="49.20753" lon="1.71154">
        <ele>104</ele>
        <time>2020-09-02T12:51:28+02:00</time>
      </trkpt>
      <trkpt lat="49.20788" lon="1.71099">
        <ele>105</ele>
        <time>2020-09-02T12:51:33+02:00</time>
      </trkpt>
      <trkpt lat="49.20825" lon="1.70854">
        <ele>108</ele>
        <time>2020-09-02T12:51:38+02:00</time>
      </trkpt>
      <trkpt lat="49.20861" lon="1.70627">
        <ele>109</ele>
        <time>2020-09-02T12:51:43+02:00</time>
      </trkpt>
      <trkpt lat="49.20857" lon="1.70478">
        <ele>109</ele>
        <time>2020-09-02T12:51:48+02:00</time>
      </trkpt>
      <trkpt lat="49.20882" lon="1.70386">
        <ele>109</ele>
        <time>2020-09-02T12:51:53+02:00</time>
      </trkpt>
      <trkpt lat="49.2092" lon="1.70296">
        <ele>108</ele>
        <time>2020-09-02T12:51:58+02:00</time>
      </trkpt>
      <trkpt lat="49.21032" lon="1.70157">
        <ele>108</ele>
        <time>2020-09-02T12:52:03+02:00</time>
      </trkpt>
      <trkpt lat="49.21099" lon="1.70418">
        <ele>110</ele>
        <time>2020-09-02T12:52:08+02:00</time>
      </trkpt>
      <trkpt lat="49.21113" lon="1.70556">
        <ele>109</ele>
        <time>2020-09-02T12:52:13+02:00</time>
      </trkpt>
      <trkpt lat="49.21172" lon="1.70732">
        <ele>110</ele>
        <time>2020-09-02T12:52:18+02:00</time>
      </trkpt>
      <trkpt lat="49.21272" lon="1.70931">
        <ele>114</ele>
        <time>2020-09-02T12:52:23+02:00</time>
      </trkpt>
      <trkpt lat="49.21406" lon="1.71054">
        <ele>111</ele>
        <time>2020-09-02T12:52:28+02:00</time>
      </trkpt>
      <trkpt lat="49.21476" lon="1.70968">
        <ele>104</ele>
        <time>2020-09-02T12:52:33+02:00</time>
      </trkpt>
      <trkpt lat="49.21678" lon="1.71313">
        <ele>92</ele>
        <time>2020-09-02T12:52:38+02:00</time>
      </trkpt>
      <trkpt lat="49.22183" lon="1.71672">
        <ele>78</ele>
        <time>2020-09-02T12:52:43+02:00</time>
      </trkpt>
      <trkpt lat="49.22315" lon="1.71706">
        <ele>75</ele>
        <time>2020-09-02T12:52:48+02:00</time>
      </trkpt>
      <trkpt lat="49.22316" lon="1.71734">
        <ele>76</ele>
        <time>2020-09-02T12:52:53+02:00</time>
      </trkpt>
      <trkpt lat="49.22428" lon="1.71811">
        <ele>81</ele>
        <time>2020-09-02T12:52:58+02:00</time>
      </trkpt>
      <trkpt lat="49.22484" lon="1.71824">
        <ele>86</ele>
        <time>2020-09-02T12:53:03+02:00</time>
      </trkpt>
      <trkpt lat="49.22633" lon="1.71867">
        <ele>86</ele>
        <time>2020-09-02T12:53:08+02:00</time>
      </trkpt>
      <trkpt lat="49.22742" lon="1.71965">
        <ele>86</ele>
        <time>2020-09-02T12:53:13+02:00</time>
      </trkpt>
      <trkpt lat="49.23019" lon="1.72493">
        <ele>100</ele>
        <time>2020-09-02T12:53:18+02:00</time>
      </trkpt>
      <trkpt lat="49.23207" lon="1.72674">
        <ele>108</ele>
        <time>2020-09-02T12:53:23+02:00</time>
      </trkpt>
      <trkpt lat="49.23496" lon="1.73034">
        <ele>76</ele>
        <time>2020-09-02T12:53:28+02:00</time>
      </trkpt>
      <trkpt lat="49.23784" lon="1.7333">
        <ele>67</ele>
        <time>2020-09-02T12:53:33+02:00</time>
      </trkpt>
      <trkpt lat="49.23773" lon="1.73463">
        <ele>72</ele>
        <time>2020-09-02T12:53:38+02:00</time>
      </trkpt>
      <trkpt lat="49.23798" lon="1.73558">
        <ele>75</ele>
        <time>2020-09-02T12:53:43+02:00</time>
      </trkpt>
      <trkpt lat="49.23821" lon="1.73571">
        <ele>74</ele>
        <time>2020-09-02T12:53:48+02:00</time>
      </trkpt>
      <trkpt lat="49.23885" lon="1.73571">
        <ele>69</ele>
        <time>2020-09-02T12:53:53+02:00</time>
      </trkpt>
      <trkpt lat="49.23927" lon="1.73635">
        <ele>68</ele>
        <time>2020-09-02T12:53:58+02:00</time>
      </trkpt>
      <trkpt lat="49.23958" lon="1.73759">
        <ele>67</ele>
        <time>2020-09-02T12:54:03+02:00</time>
      </trkpt>
      <trkpt lat="49.23992" lon="1.73759">
        <ele>65</ele>
        <time>2020-09-02T12:54:08+02:00</time>
      </trkpt>
      <trkpt lat="49.24048" lon="1.73751">
        <ele>64</ele>
        <time>2020-09-02T12:54:13+02:00</time>
      </trkpt>
      <trkpt lat="49.24056" lon="1.73725">
        <ele>64</ele>
        <time>2020-09-02T12:54:18+02:00</time>
      </trkpt>
      <trkpt lat="49.24087" lon="1.73682">
        <ele>64</ele>
        <time>2020-09-02T12:54:23+02:00</time>
      </trkpt>
      <trkpt lat="49.24129" lon="1.73665">
        <ele>62</ele>
        <time>2020-09-02T12:54:28+02:00</time>
      </trkpt>
      <trkpt lat="49.24165" lon="1.73699">
        <ele>60</ele>
        <time>2020-09-02T12:54:33+02:00</time>
      </trkpt>
      <trkpt lat="49.24182" lon="1.73725">
        <ele>59</ele>
        <time>2020-09-02T12:54:38+02:00</time>
      </trkpt>
      <trkpt lat="49.24151" lon="1.73789">
        <ele>60</ele>
        <time>2020-09-02T12:54:43+02:00</time>
      </trkpt>
      <trkpt lat="49.24123" lon="1.73841">
        <ele>62</ele>
        <time>2020-09-02T12:54:48+02:00</time>
      </trkpt>
      <trkpt lat="49.24118" lon="1.73867">
        <ele>63</ele>
        <time>2020-09-02T12:54:53+02:00</time>
      </trkpt>
      <trkpt lat="49.24135" lon="1.73905">
        <ele>63</ele>
        <time>2020-09-02T12:54:58+02:00</time>
      </trkpt>
      <trkpt lat="49.24123" lon="1.73948">
        <ele>65</ele>
        <time>2020-09-02T12:55:03+02:00</time>
      </trkpt>
      <trkpt lat="49.24098" lon="1.74004">
        <ele>69</ele>
        <time>2020-09-02T12:55:08+02:00</time>
      </trkpt>
      <trkpt lat="49.24084" lon="1.74171">
        <ele>64</ele>
        <time>2020-09-02T12:55:13+02:00</time>
      </trkpt>
      <trkpt lat="49.24524" lon="1.74425">
        <ele>78</ele>
        <time>2020-09-02T12:55:18+02:00</time>
      </trkpt>
      <trkpt lat="49.24647" lon="1.7442">
        <ele>84</ele>
        <time>2020-09-02T12:55:23+02:00</time>
      </trkpt>
      <trkpt lat="49.24734" lon="1.74455">
        <ele>91</ele>
        <time>2020-09-02T12:55:28+02:00</time>
      </trkpt>
      <trkpt lat="49.24897" lon="1.74656">
        <ele>105</ele>
        <time>2020-09-02T12:55:33+02:00</time>
      </trkpt>
      <trkpt lat="49.2516" lon="1.74965">
        <ele>130</ele>
        <time>2020-09-02T12:55:38+02:00</time>
      </trkpt>
      <trkpt lat="49.25373" lon="1.74652">
        <ele>123</ele>
        <time>2020-09-02T12:55:43+02:00</time>
      </trkpt>
      <trkpt lat="49.25418" lon="1.74639">
        <ele>117</ele>
        <time>2020-09-02T12:55:48+02:00</time>
      </trkpt>
      <trkpt lat="49.25491" lon="1.74485">
        <ele>113</ele>
        <time>2020-09-02T12:55:53+02:00</time>
      </trkpt>
      <trkpt lat="49.25541" lon="1.7442">
        <ele>106</ele>
        <time>2020-09-02T12:55:58+02:00</time>
      </trkpt>
      <trkpt lat="49.25656" lon="1.74442">
        <ele>93</ele>
        <time>2020-09-02T12:56:03+02:00</time>
      </trkpt>
      <trkpt lat="49.25664" lon="1.74356">
        <ele>92</ele>
        <time>2020-09-02T12:56:08+02:00</time>
      </trkpt>
      <trkpt lat="49.25703" lon="1.74304">
        <ele>91</ele>
        <time>2020-09-02T12:56:13+02:00</time>
      </trkpt>
      <trkpt lat="49.25759" lon="1.74292">
        <ele>89</ele>
        <time>2020-09-02T12:56:18+02:00</time>
      </trkpt>
      <trkpt lat="49.25827" lon="1.7424">
        <ele>88</ele>
        <time>2020-09-02T12:56:23+02:00</time>
      </trkpt>
      <trkpt lat="49.25877" lon="1.74137">
        <ele>87</ele>
        <time>2020-09-02T12:56:28+02:00</time>
      </trkpt>
      <trkpt lat="49.25899" lon="1.74103">
        <ele>85</ele>
        <time>2020-09-02T12:56:33+02:00</time>
      </trkpt>
      <trkpt lat="49.26009" lon="1.74128">
        <ele>79</ele>
        <time>2020-09-02T12:56:38+02:00</time>
      </trkpt>
      <trkpt lat="49.26" lon="1.74193">
        <ele>79</ele>
        <time>2020-09-02T12:56:43+02:00</time>
      </trkpt>
      <trkpt lat="49.26104" lon="1.74231">
        <ele>76</ele>
        <time>2020-09-02T12:56:48+02:00</time>
      </trkpt>
      <trkpt lat="49.26121" lon="1.74193">
        <ele>76</ele>
        <time>2020-09-02T12:56:53+02:00</time>
      </trkpt>
      <trkpt lat="49.26339" lon="1.74219">
        <ele>74</ele>
        <time>2020-09-02T12:56:58+02:00</time>
      </trkpt>
      <trkpt lat="49.26454" lon="1.74292">
        <ele>73</ele>
        <time>2020-09-02T12:57:03+02:00</time>
      </trkpt>
      <trkpt lat="49.26555" lon="1.74352">
        <ele>70</ele>
        <time>2020-09-02T12:57:08+02:00</time>
      </trkpt>
      <trkpt lat="49.26647" lon="1.74472">
        <ele>64</ele>
        <time>2020-09-02T12:57:13+02:00</time>
      </trkpt>
      <trkpt lat="49.26723" lon="1.74549">
        <ele>58</ele>
        <time>2020-09-02T12:57:18+02:00</time>
      </trkpt>
      <trkpt lat="49.2677" lon="1.74626">
        <ele>52</ele>
        <time>2020-09-02T12:57:23+02:00</time>
      </trkpt>
      <trkpt lat="49.26854" lon="1.74652">
        <ele>46</ele>
        <time>2020-09-02T12:57:28+02:00</time>
      </trkpt>
      <trkpt lat="49.26916" lon="1.74661">
        <ele>46</ele>
        <time>2020-09-02T12:57:33+02:00</time>
      </trkpt>
      <trkpt lat="49.27011" lon="1.75115">
        <ele>47</ele>
        <time>2020-09-02T12:57:38+02:00</time>
      </trkpt>
      <trkpt lat="49.27162" lon="1.75326">
        <ele>47</ele>
        <time>2020-09-02T12:57:43+02:00</time>
      </trkpt>
      <trkpt lat="49.27218" lon="1.75746">
        <ele>47</ele>
        <time>2020-09-02T12:57:48+02:00</time>
      </trkpt>
      <trkpt lat="49.27308" lon="1.76047">
        <ele>49</ele>
        <time>2020-09-02T12:57:53+02:00</time>
      </trkpt>
      <trkpt lat="49.2742" lon="1.76231">
        <ele>49</ele>
        <time>2020-09-02T12:57:58+02:00</time>
      </trkpt>
      <trkpt lat="49.27512" lon="1.76347">
        <ele>50</ele>
        <time>2020-09-02T12:58:03+02:00</time>
      </trkpt>
      <trkpt lat="49.27521" lon="1.76347">
        <ele>51</ele>
        <time>2020-09-02T12:58:08+02:00</time>
      </trkpt>
      <trkpt lat="49.27526" lon="1.76339">
        <ele>51</ele>
        <time>2020-09-02T12:58:13+02:00</time>
      </trkpt>
    </trkseg>
  </trk>
</gpx>